Time;durP1;ratioP1;P1;durP2;ratioP2;P2;SDS_P1;SDS_P2;PMS_P1;PMS_P2;Temp;Humidity;BMP_temperature;BMP_pressure;BME280_temperature;BME280_humidity;BME280_pressure;Samples;Min_cycle;Max_cycle;Signal;HPM_P1;HPM_P2
2022/01/14 00:01:45;;;;;;;31.88;15.43;;;-3.70;99.90;;;;;;5075894;28;20055;-66
2022/01/14 00:04:13;;;;;;;34.13;17.75;;;-3.80;99.90;;;;;;5076188;28;20711;-66
2022/01/14 00:06:39;;;;;;;32.22;15.68;;;-3.80;99.90;;;;;;5075925;28;20374;-66
2022/01/14 00:09:08;;;;;;;30.30;15.32;;;-3.80;99.90;;;;;;5075582;28;20830;-66
2022/01/14 00:11:44;;;;;;;31.50;13.25;;;-3.90;99.90;;;;;;5075430;28;20137;-66
2022/01/14 00:16:51;;;;;;;28.55;13.48;;;-3.90;99.90;;;;;;5074996;28;20101;-66
2022/01/14 00:19:18;;;;;;;26.33;10.82;;;-4.00;99.90;;;;;;5076298;28;20151;-66
2022/01/14 00:21:45;;;;;;;24.05;10.13;;;-4.10;99.90;;;;;;5078267;28;20043;-66
2022/01/14 00:31:42;;;;;;;29.02;12.95;;;-4.20;99.90;;;;;;5077339;28;20048;-66
2022/01/14 00:34:47;;;;;;;25.88;12.55;;;-4.30;99.90;;;;;;5084942;28;20043;-66
2022/01/14 00:37:15;;;;;;;;;;;-4.30;99.90;;;;;;5098769;28;20348;-66
2022/01/14 00:39:43;;;;;;;24.38;11.23;;;-4.40;99.90;;;;;;5098284;28;19919;-66
2022/01/14 00:42:11;;;;;;;25.83;12.82;;;-4.50;99.90;;;;;;5079506;28;20109;-66
2022/01/14 00:44:37;;;;;;;28.05;12.65;;;-4.50;99.90;;;;;;5079260;28;20055;-66
2022/01/14 00:47:05;;;;;;;31.30;14.27;;;-4.60;99.90;;;;;;5079108;28;20205;-66
2022/01/14 00:49:32;;;;;;;24.60;12.48;;;-4.60;99.90;;;;;;5078233;28;20408;-66
2022/01/14 00:51:59;;;;;;;26.75;13.90;;;-4.70;99.90;;;;;;5078687;28;20410;-66
2022/01/14 00:54:26;;;;;;;30.75;14.85;;;-4.70;99.90;;;;;;5079504;28;20056;-66
2022/01/14 00:59:29;;;;;;;37.33;19.00;;;-4.80;99.90;;;;;;5078224;28;20348;-66
2022/01/14 01:01:59;;;;;;;40.03;17.55;;;-4.80;99.90;;;;;;5079051;28;20067;-66
2022/01/14 01:04:31;;;;;;;36.40;19.48;;;-4.70;99.90;;;;;;5079254;28;20087;-66
2022/01/14 01:07:00;;;;;;;33.38;17.58;;;-4.70;99.90;;;;;;5078727;28;20037;-67
2022/01/14 01:09:29;;;;;;;38.70;19.73;;;-4.70;99.90;;;;;;5079613;28;20404;-66
2022/01/14 01:12:32;;;;;;;40.42;20.85;;;-4.80;99.90;;;;;;5078844;28;20506;-66
2022/01/14 01:14:57;;;;;;;40.88;18.30;;;-4.70;99.90;;;;;;5079093;28;20542;-66
2022/01/14 01:17:23;;;;;;;31.73;17.20;;;-4.70;99.90;;;;;;5076461;28;20134;-66
2022/01/14 01:19:50;;;;;;;53.58;26.23;;;-4.70;99.90;;;;;;5068646;28;20040;-66
2022/01/14 01:22:17;;;;;;;37.85;20.05;;;-4.70;99.90;;;;;;5078715;28;20572;-66
2022/01/14 01:24:57;;;;;;;38.25;20.35;;;-4.60;99.90;;;;;;5078575;28;20062;-66
2022/01/14 01:27:23;;;;;;;41.53;21.45;;;-4.60;99.90;;;;;;5079343;28;20047;-66
2022/01/14 01:30:00;;;;;;;39.35;20.80;;;-4.60;99.90;;;;;;5078321;28;20094;-66
2022/01/14 01:32:27;;;;;;;43.75;22.27;;;-4.60;99.90;;;;;;5079615;28;20076;-66
2022/01/14 01:34:54;;;;;;;43.10;21.33;;;-4.60;99.90;;;;;;5079276;28;20048;-66
2022/01/14 01:37:20;;;;;;;41.38;19.95;;;-4.70;99.90;;;;;;5076181;28;20044;-67
2022/01/14 01:39:47;;;;;;;45.20;22.42;;;-4.70;99.90;;;;;;5077775;28;20044;-66
2022/01/14 01:42:19;;;;;;;48.35;23.88;;;-4.60;99.90;;;;;;5078480;28;20131;-66
2022/01/14 01:44:47;;;;;;;39.58;20.02;;;-4.70;99.90;;;;;;5077835;28;20113;-66
2022/01/14 01:47:14;;;;;;;39.10;21.83;;;-4.60;99.90;;;;;;5078112;28;20385;-66
2022/01/14 01:49:41;;;;;;;44.92;22.92;;;-4.70;99.90;;;;;;5077689;28;20043;-66
2022/01/14 01:52:07;;;;;;;48.90;25.00;;;-4.70;99.90;;;;;;5078065;28;20584;-66
2022/01/14 01:54:34;;;;;;;44.40;22.95;;;-4.70;99.90;;;;;;5078234;28;20555;-66
2022/01/14 01:57:01;;;;;;;34.20;18.98;;;-4.70;99.90;;;;;;5077881;28;20044;-66
2022/01/14 01:59:29;;;;;;;34.58;17.45;;;-4.70;99.90;;;;;;5077199;28;20121;-66
2022/01/14 02:01:58;;;;;;;30.95;16.05;;;-4.70;99.90;;;;;;5077541;28;20633;-66
2022/01/14 02:04:26;;;;;;;35.53;19.77;;;-4.80;99.90;;;;;;5078341;28;20043;-66
2022/01/14 02:06:54;;;;;;;38.67;19.52;;;-4.80;99.90;;;;;;5076979;28;20161;-66
2022/01/14 02:09:23;;;;;;;40.97;19.90;;;-4.80;99.90;;;;;;5076059;28;20052;-66
2022/01/14 02:11:50;;;;;;;34.90;17.00;;;-4.80;99.90;;;;;;5077707;28;20419;-66
2022/01/14 02:17:34;;;;;;;48.67;22.50;;;-4.80;99.90;;;;;;5039306;28;20056;-66
2022/01/14 02:23:00;;;;;;;50.70;25.67;;;-4.80;99.90;;;;;;5077369;28;20505;-66
2022/01/14 02:25:30;;;;;;;49.33;25.02;;;-4.80;99.90;;;;;;5077668;28;20051;-66
2022/01/14 02:28:10;;;;;;;55.65;25.50;;;-4.70;99.90;;;;;;5077260;28;20055;-66
2022/01/14 02:30:39;;;;;;;55.08;25.38;;;-4.70;99.90;;;;;;5076085;28;20048;-66
2022/01/14 02:33:10;;;;;;;51.00;25.13;;;-4.60;99.90;;;;;;5078267;28;20047;-66
2022/01/14 02:35:39;;;;;;;45.30;23.23;;;-4.60;99.90;;;;;;5077595;28;20044;-66
2022/01/14 02:38:09;;;;;;;44.45;20.40;;;-4.60;99.90;;;;;;5075051;28;20455;-66
2022/01/14 02:40:37;;;;;;;28.83;15.23;;;-4.60;99.90;;;;;;5075942;28;20044;-66
2022/01/14 02:43:06;;;;;;;24.85;12.85;;;-4.70;99.90;;;;;;5076474;28;20105;-66
2022/01/14 02:45:34;;;;;;;28.95;14.18;;;-4.60;99.90;;;;;;5076643;28;20560;-66
2022/01/14 02:48:02;;;;;;;24.10;12.73;;;-4.70;99.90;;;;;;5077142;28;20687;-66
2022/01/14 02:50:37;;;;;;;22.35;12.32;;;-4.70;99.90;;;;;;5075425;28;20044;-67
2022/01/14 02:53:24;;;;;;;27.10;11.55;;;-4.70;99.90;;;;;;5076727;28;20562;-66
2022/01/14 02:55:53;;;;;;;25.08;12.00;;;-4.80;99.90;;;;;;5077287;28;20105;-66
2022/01/14 02:58:21;;;;;;;26.38;11.95;;;-4.80;99.90;;;;;;5075928;28;20097;-67
2022/01/14 03:00:50;;;;;;;24.48;11.48;;;-4.80;99.90;;;;;;5076061;28;20571;-67
2022/01/14 03:03:22;;;;;;;20.25;11.18;;;-4.90;99.90;;;;;;5076679;28;20411;-66
2022/01/14 03:05:51;;;;;;;26.20;12.48;;;-4.90;99.90;;;;;;5076866;28;20052;-66
2022/01/14 03:08:22;;;;;;;21.30;11.57;;;-5.00;99.90;;;;;;5076470;28;20093;-66
2022/01/14 03:11:11;;;;;;;23.90;13.18;;;-4.90;99.90;;;;;;5076259;28;20575;-66
2022/01/14 03:13:39;;;;;;;43.17;21.40;;;-5.00;99.90;;;;;;5076228;28;20065;-67
2022/01/14 03:16:06;;;;;;;40.75;22.10;;;-5.00;99.90;;;;;;5076431;28;20113;-66
2022/01/14 03:18:48;;;;;;;55.58;27.77;;;-5.00;99.90;;;;;;5076183;28;20606;-66
2022/01/14 03:21:17;;;;;;;51.92;23.90;;;-5.00;99.90;;;;;;5056078;28;20589;-66
2022/01/14 03:23:51;;;;;;;57.60;25.45;;;-5.00;99.90;;;;;;5056740;28;20463;-66
2022/01/14 03:26:20;;;;;;;52.28;27.20;;;-4.90;99.90;;;;;;5056392;28;20053;-66
2022/01/14 03:28:48;;;;;;;44.70;22.05;;;-4.90;99.90;;;;;;5055780;28;20056;-66
2022/01/14 03:31:15;;;;;;;47.33;24.02;;;-4.90;99.90;;;;;;5055821;28;20117;-66
2022/01/14 03:33:42;;;;;;;43.60;22.35;;;-5.00;99.90;;;;;;5056618;28;20055;-66
2022/01/14 03:36:10;;;;;;;49.40;22.17;;;-4.90;99.90;;;;;;5055919;28;20040;-66
2022/01/14 03:38:37;;;;;;;48.88;24.10;;;-4.90;99.90;;;;;;5067745;28;20378;-66
2022/01/14 03:41:04;;;;;;;49.20;22.67;;;-4.90;99.90;;;;;;5074937;28;20117;-66
2022/01/14 03:43:32;;;;;;;43.65;21.80;;;-4.90;99.90;;;;;;5076142;28;20052;-66
2022/01/14 03:45:59;;;;;;;42.58;22.25;;;-4.90;99.90;;;;;;5076148;28;20221;-66
2022/01/14 03:48:26;;;;;;;44.03;21.48;;;-4.90;99.90;;;;;;5076228;28;20032;-66
2022/01/14 03:50:53;;;;;;;37.08;18.58;;;-4.90;99.90;;;;;;5075843;28;20040;-66
2022/01/14 03:53:20;;;;;;;50.00;24.35;;;-4.90;99.90;;;;;;5076804;28;20048;-66
2022/01/14 03:55:47;;;;;;;58.20;27.00;;;-4.90;99.90;;;;;;5080586;28;20639;-66
2022/01/14 03:58:33;;;;;;;62.53;28.98;;;-4.80;99.90;;;;;;5079949;28;20093;-66
2022/01/14 04:01:00;;;;;;;51.88;26.35;;;-4.80;99.90;;;;;;5078948;28;20075;-66
2022/01/14 04:03:27;;;;;;;50.97;27.02;;;-4.80;99.90;;;;;;5079813;28;20571;-66
2022/01/14 04:05:54;;;;;;;45.20;25.55;;;-4.80;99.90;;;;;;5080065;28;20276;-65
2022/01/14 04:08:20;;;;;;;54.42;27.58;;;-4.70;99.90;;;;;;5080350;28;20044;-66
2022/01/14 04:10:50;;;;;;;54.70;26.40;;;-4.70;99.90;;;;;;5079299;28;20097;-66
2022/01/14 04:13:22;;;;;;;55.58;27.10;;;-4.70;99.90;;;;;;5080314;28;20577;-66
2022/01/14 04:15:49;;;;;;;65.30;27.63;;;-4.70;99.90;;;;;;5080239;28;20058;-66
2022/01/14 04:18:20;;;;;;;54.20;27.55;;;-4.70;99.90;;;;;;5080209;28;20553;-66
2022/01/14 04:20:49;;;;;;;65.80;30.55;;;-4.70;99.90;;;;;;5077879;28;20093;-66
2022/01/14 04:23:19;;;;;;;60.45;29.55;;;-4.70;99.90;;;;;;5080114;28;20048;-67
2022/01/14 04:25:51;;;;;;;60.70;28.17;;;-4.60;99.90;;;;;;5079532;28;20364;-66
2022/01/14 04:28:23;;;;;;;42.72;22.00;;;-4.70;99.90;;;;;;5079163;28;20063;-66
2022/01/14 04:30:54;;;;;;;40.10;20.25;;;-4.70;99.90;;;;;;5078362;28;20502;-66
2022/01/14 04:33:23;;;;;;;38.13;18.40;;;-4.70;99.90;;;;;;5079469;28;20549;-66
2022/01/14 04:35:50;;;;;;;35.95;17.42;;;-4.70;99.90;;;;;;5079184;28;20040;-66
2022/01/14 04:38:17;;;;;;;29.77;14.70;;;-4.70;99.90;;;;;;5078858;28;20545;-66
2022/01/14 04:40:44;;;;;;;24.48;12.35;;;-4.70;99.90;;;;;;5076915;28;20503;-66
2022/01/14 04:43:13;;;;;;;21.40;12.32;;;-4.70;99.90;;;;;;5078991;28;20068;-66
2022/01/14 04:45:43;;;;;;;35.17;15.73;;;-4.70;99.90;;;;;;5079449;28;20060;-66
2022/01/14 04:48:11;;;;;;;29.77;15.60;;;-4.70;99.90;;;;;;5079613;28;20055;-66
2022/01/14 04:50:39;;;;;;;27.50;15.48;;;-4.70;99.90;;;;;;5078620;28;20437;-65
2022/01/14 04:53:09;;;;;;;32.25;17.58;;;-4.70;99.90;;;;;;5079978;28;20048;-67
2022/01/14 04:55:36;;;;;;;32.25;16.77;;;-4.70;99.90;;;;;;5079200;28;20579;-67
2022/01/14 04:58:04;;;;;;;27.67;15.98;;;-4.70;99.90;;;;;;5079292;28;20082;-68
2022/01/14 05:00:31;;;;;;;39.30;18.38;;;-4.70;99.90;;;;;;5077876;28;20595;-65
2022/01/14 05:02:58;;;;;;;45.35;22.55;;;-4.70;99.90;;;;;;5079590;28;20118;-66
2022/01/14 05:05:28;;;;;;;42.95;22.67;;;-4.70;99.90;;;;;;5077717;28;20043;-66
2022/01/14 05:07:56;;;;;;;50.10;24.85;;;-4.60;99.90;;;;;;5079203;28;20044;-67
2022/01/14 05:12:49;;;;;;;33.33;17.02;;;-4.60;99.90;;;;;;5079028;28;20044;-66
2022/01/14 05:15:17;;;;;;;34.85;16.05;;;-4.60;99.90;;;;;;5079664;28;20471;-66
2022/01/14 05:17:46;;;;;;;31.85;16.33;;;-4.60;99.90;;;;;;5078852;28;20043;-67
2022/01/14 05:20:13;;;;;;;29.55;16.63;;;-4.60;99.90;;;;;;5078023;28;20071;-66
2022/01/14 05:22:41;;;;;;;29.63;14.75;;;-4.60;99.90;;;;;;5079152;28;20109;-66
2022/01/14 05:25:09;;;;;;;28.80;15.05;;;-4.50;99.90;;;;;;5079078;28;20078;-66
2022/01/14 05:27:36;;;;;;;29.65;16.48;;;-4.50;99.90;;;;;;5078034;28;20502;-66
2022/01/14 05:30:05;;;;;;;27.58;14.60;;;-4.50;99.90;;;;;;5078285;28;20481;-66
2022/01/14 05:32:32;;;;;;;24.05;13.85;;;-4.40;99.90;;;;;;5078271;28;20036;-65
2022/01/14 05:34:59;;;;;;;23.30;12.27;;;-4.40;99.90;;;;;;5078269;28;20121;-65
2022/01/14 05:37:26;;;;;;;20.52;11.57;;;-4.40;99.90;;;;;;5078462;28;20121;-66
2022/01/14 05:39:53;;;;;;;20.75;11.18;;;-4.40;99.90;;;;;;5077008;28;20048;-65
2022/01/14 05:42:19;;;;;;;23.63;12.23;;;-4.40;99.90;;;;;;5076652;28;20044;-66
2022/01/14 05:44:46;;;;;;;30.40;13.07;;;-4.40;99.90;;;;;;5076946;28;20663;-66
2022/01/14 05:47:14;;;;;;;20.63;12.27;;;-4.40;99.90;;;;;;5078196;28;20452;-66
2022/01/14 05:49:41;;;;;;;19.33;10.70;;;-4.40;99.90;;;;;;5077514;28;20055;-67
2022/01/14 05:52:08;;;;;;;22.23;11.40;;;-4.40;99.90;;;;;;5077879;28;20039;-66
2022/01/14 05:54:34;;;;;;;21.60;10.48;;;-4.40;99.90;;;;;;5077814;28;20097;-66
2022/01/14 05:57:01;;;;;;;18.05;8.73;;;-4.40;99.90;;;;;;5077785;28;20566;-65
2022/01/14 05:59:28;;;;;;;15.13;8.40;;;-4.40;99.90;;;;;;5077170;28;20047;-66
2022/01/14 06:01:54;;;;;;;21.00;11.90;;;-4.40;99.90;;;;;;5075805;28;20039;-65
2022/01/14 06:04:21;;;;;;;18.80;10.68;;;-4.40;99.90;;;;;;5077783;28;20044;-66
2022/01/14 06:06:48;;;;;;;19.30;10.27;;;-4.40;99.90;;;;;;5077335;28;20572;-66
2022/01/14 06:09:15;;;;;;;17.65;9.63;;;-4.30;99.90;;;;;;5076868;28;20807;-66
2022/01/14 06:11:41;;;;;;;20.95;9.32;;;-4.40;99.90;;;;;;5076722;28;20113;-66
2022/01/14 06:14:08;;;;;;;15.80;8.45;;;-4.30;99.90;;;;;;5077789;28;20116;-66
2022/01/14 06:16:35;;;;;;;14.75;8.75;;;-4.30;99.90;;;;;;5077541;28;20135;-66
2022/01/14 06:19:02;;;;;;;15.93;8.50;;;-4.30;99.90;;;;;;5075537;28;20074;-66
2022/01/14 06:21:29;;;;;;;16.60;7.13;;;-4.40;99.90;;;;;;5077370;28;20571;-66
2022/01/14 06:23:55;;;;;;;12.88;6.95;;;-4.30;99.90;;;;;;5077362;28;20075;-66
2022/01/14 06:26:23;;;;;;;;;;;-4.40;99.90;;;;;;5076376;28;20136;-66
2022/01/14 06:28:50;;;;;;;14.55;8.05;;;-4.30;99.90;;;;;;5076135;28;20231;-65
2022/01/14 06:31:16;;;;;;;13.50;7.78;;;-4.40;99.90;;;;;;5077112;28;20517;-66
2022/01/14 06:33:43;;;;;;;17.23;8.18;;;-4.40;99.90;;;;;;5076997;28;20040;-66
2022/01/14 06:36:10;;;;;;;13.73;7.85;;;-4.40;99.90;;;;;;5077572;28;20068;-66
2022/01/14 06:38:37;;;;;;;15.70;8.23;;;-4.40;99.90;;;;;;5077649;28;20256;-66
2022/01/14 06:41:04;;;;;;;15.00;9.25;;;-4.40;99.90;;;;;;5074979;28;20150;-66
2022/01/14 06:43:31;;;;;;;14.55;7.45;;;-4.40;99.90;;;;;;5076033;28;20044;-66
2022/01/14 06:45:57;;;;;;;15.07;7.03;;;-4.40;99.90;;;;;;5075636;28;20109;-65
2022/01/14 06:48:25;;;;;;;10.93;7.70;;;-4.50;99.90;;;;;;5076332;28;20083;-66
2022/01/14 06:50:52;;;;;;;19.08;10.20;;;-4.50;99.90;;;;;;5075944;28;20082;-66
2022/01/14 06:53:18;;;;;;;19.58;9.63;;;-4.50;99.90;;;;;;5077275;28;20040;-66
2022/01/14 06:55:45;;;;;;;16.30;8.40;;;-4.60;99.90;;;;;;5076435;28;20128;-66
2022/01/14 06:58:12;;;;;;;17.42;9.25;;;-4.60;99.90;;;;;;5076825;28;20048;-66
2022/01/14 07:00:39;;;;;;;17.02;9.15;;;-4.60;99.90;;;;;;5076604;28;20518;-66
2022/01/14 07:03:06;;;;;;;22.98;9.63;;;-4.70;99.90;;;;;;5076209;28;20058;-66
2022/01/14 07:05:33;;;;;;;14.57;8.43;;;-4.60;99.90;;;;;;5076524;28;20419;-66
2022/01/14 07:08:00;;;;;;;12.88;7.95;;;-4.70;99.90;;;;;;5076972;28;20046;-66
2022/01/14 07:10:26;;;;;;;15.48;8.20;;;-4.60;99.90;;;;;;5075995;28;20040;-65
2022/01/14 07:12:53;;;;;;;14.93;8.63;;;-4.60;99.90;;;;;;5075685;28;20051;-59
2022/01/14 07:15:21;;;;;;;14.23;7.78;;;-4.60;99.90;;;;;;5076182;28;20067;-59
2022/01/14 07:17:48;;;;;;;15.38;6.45;;;-4.60;99.90;;;;;;5075540;28;20052;-59
2022/01/14 07:20:17;;;;;;;12.75;6.57;;;-4.50;99.90;;;;;;5075688;28;20558;-59
2022/01/14 07:22:46;;;;;;;11.25;5.60;;;-4.50;99.90;;;;;;5076246;28;20056;-60
2022/01/14 07:25:17;;;;;;;10.90;6.05;;;-4.50;99.90;;;;;;5075345;28;20473;-60
2022/01/14 07:27:44;;;;;;;10.90;6.35;;;-4.40;99.90;;;;;;5075984;28;20382;-59
2022/01/14 07:30:14;;;;;;;13.13;6.97;;;-4.40;99.90;;;;;;5075485;28;20132;-59
2022/01/14 07:32:42;;;;;;;16.35;7.40;;;-4.30;99.90;;;;;;5075957;28;20044;-60
2022/01/14 07:35:10;;;;;;;11.85;6.30;;;-4.10;99.90;;;;;;5076231;28;20471;-60
2022/01/14 07:37:37;;;;;;;12.50;6.57;;;-3.90;99.90;;;;;;5076118;28;20160;-60
2022/01/14 07:40:05;;;;;;;13.63;7.05;;;-3.70;99.90;;;;;;5073520;28;20117;-59
2022/01/14 07:42:32;;;;;;;13.30;6.47;;;-3.50;99.90;;;;;;5073925;28;20104;-60
2022/01/14 07:44:59;;;;;;;13.10;7.57;;;-3.30;99.90;;;;;;5075698;28;20082;-59
2022/01/14 07:47:26;;;;;;;10.15;6.35;;;-3.10;99.90;;;;;;5075699;28;20052;-60
2022/01/14 07:49:53;;;;;;;12.68;6.28;;;-2.90;99.90;;;;;;5075928;28;20144;-60
2022/01/14 07:52:20;;;;;;;19.50;6.45;;;-2.70;99.90;;;;;;5075657;28;20123;-60
2022/01/14 07:54:47;;;;;;;12.45;6.30;;;-2.50;99.90;;;;;;5075977;28;20046;-59
2022/01/14 07:57:17;;;;;;;12.05;6.13;;;-2.30;99.90;;;;;;5076218;28;20052;-59
2022/01/14 07:59:44;;;;;;;12.98;7.20;;;-2.10;99.90;;;;;;5075373;28;20105;-60
2022/01/14 08:02:12;;;;;;;10.90;6.00;;;-1.90;99.90;;;;;;5075410;28;20592;-59
2022/01/14 08:04:40;;;;;;;15.38;6.25;;;-1.70;99.90;;;;;;5075774;28;20094;-59
2022/01/14 08:07:11;;;;;;;12.40;5.85;;;-1.50;99.90;;;;;;5075976;28;20052;-59
2022/01/14 08:09:40;;;;;;;16.08;6.78;;;-1.40;99.90;;;;;;5073485;28;20482;-55
2022/01/14 08:12:08;;;;;;;15.32;6.80;;;-1.10;99.90;;;;;;5075385;28;20318;-56
2022/01/14 08:14:35;;;;;;;11.43;6.60;;;-0.90;99.90;;;;;;5073785;28;20048;-56
2022/01/14 08:17:02;;;;;;;13.43;7.82;;;-0.70;99.90;;;;;;5075402;28;20073;-56
2022/01/14 08:19:33;;;;;;;13.25;7.47;;;-0.60;99.90;;;;;;5075139;28;20541;-58
2022/01/14 08:22:02;;;;;;;14.82;7.07;;;-0.40;99.90;;;;;;5076107;28;20074;-56
2022/01/14 08:24:29;;;;;;;11.45;6.75;;;-0.30;99.90;;;;;;5074061;28;20075;-56
2022/01/14 08:26:56;;;;;;;14.35;7.85;;;-0.20;99.90;;;;;;5075579;28;20101;-56
2022/01/14 08:29:24;;;;;;;13.20;7.05;;;-0.20;99.90;;;;;;5075380;28;20064;-57
2022/01/14 08:31:50;;;;;;;13.10;6.82;;;-0.10;99.90;;;;;;5075225;28;20040;-57
2022/01/14 08:34:17;;;;;;;;;;;0.00;99.90;;;;;;5076880;28;20044;-57
2022/01/14 08:36:44;;;;;;;15.07;6.68;;;0.00;99.90;;;;;;5074262;28;19928;-58
2022/01/14 08:39:11;;;;;;;13.55;7.38;;;0.00;99.90;;;;;;5075053;28;20072;-59
2022/01/14 08:41:38;;;;;;;14.05;7.90;;;0.10;99.90;;;;;;5077856;28;20546;-58
2022/01/14 08:44:04;;;;;;;;;;;0.20;99.90;;;;;;5078053;28;20460;-59
2022/01/14 08:46:48;;;;;;;13.95;7.30;;;0.30;99.90;;;;;;5079097;28;20443;-58
2022/01/14 08:49:15;;;;;;;;;;;0.40;99.90;;;;;;5079462;28;20072;-60
2022/01/14 08:51:42;;;;;;;12.95;7.10;;;0.50;99.90;;;;;;5079731;28;20343;-55
2022/01/14 08:54:09;;;;;;;12.10;7.53;;;0.70;99.90;;;;;;5078507;28;20129;-58
2022/01/14 08:56:36;;;;;;;;;;;0.90;99.90;;;;;;5080150;28;20559;-58
2022/01/14 08:59:04;;;;;;;12.82;7.72;;;1.00;99.90;;;;;;5078175;28;20420;-58
2022/01/14 09:01:31;;;;;;;11.65;6.85;;;1.10;99.90;;;;;;5078627;28;20456;-57
2022/01/14 09:03:58;;;;;;;13.27;8.52;;;1.20;99.90;;;;;;5076649;28;20228;-57
2022/01/14 09:06:25;;;;;;;;;;;1.20;99.90;;;;;;5078620;28;20402;-57
2022/01/14 09:08:52;;;;;;;14.57;7.20;;;1.40;99.90;;;;;;5078116;28;20120;-56
2022/01/14 09:11:18;;;;;;;;;;;1.50;99.90;;;;;;5078679;28;20071;-54
2022/01/14 09:13:45;;;;;;;12.13;6.68;;;1.70;99.90;;;;;;5076596;28;19957;-53
2022/01/14 09:16:12;;;;;;;;;;;1.70;99.90;;;;;;5078941;28;20044;-57
2022/01/14 09:18:39;;;;;;;11.68;6.78;;;1.90;99.90;;;;;;5078978;28;20036;-58
2022/01/14 09:21:05;;;;;;;;;;;2.10;99.90;;;;;;5078212;28;20040;-57
2022/01/14 09:23:34;;;;;;;16.45;7.53;;;2.30;99.90;;;;;;5078778;28;20486;-58
2022/01/14 09:26:02;;;;;;;15.23;8.05;;;2.40;99.90;;;;;;5078028;28;20093;-53
2022/01/14 09:28:29;;;;;;;12.20;7.60;;;2.50;99.90;;;;;;5078382;28;20433;-54
2022/01/14 09:30:57;;;;;;;12.57;7.45;;;2.60;99.90;;;;;;5077042;28;20101;-54
2022/01/14 09:33:24;;;;;;;10.98;7.03;;;2.80;99.90;;;;;;5078213;28;20093;-58
2022/01/14 09:35:51;;;;;;;14.68;8.65;;;3.00;99.90;;;;;;5078765;28;20036;-58
2022/01/14 09:38:18;;;;;;;12.95;7.97;;;3.20;99.90;;;;;;5077933;28;20085;-58
2022/01/14 09:40:49;;;;;;;20.40;8.32;;;3.40;99.90;;;;;;5077857;28;20275;-58
2022/01/14 09:43:16;;;;;;;15.75;8.32;;;3.60;99.90;;;;;;5077746;28;20085;-59
2022/01/14 09:46:00;;;;;;;15.00;8.57;;;3.80;99.90;;;;;;5076469;28;20044;-59
2022/01/14 09:48:27;;;;;;;12.95;7.80;;;4.00;99.90;;;;;;5077382;28;20044;-58
2022/01/14 09:50:53;;;;;;;;;;;4.30;99.90;;;;;;5075420;28;20544;-59
2022/01/14 09:53:20;;;;;;;15.85;7.75;;;4.40;99.90;;;;;;5075705;28;19973;-59
2022/01/14 09:55:47;;;;;;;16.15;8.60;;;4.60;99.90;;;;;;5075530;28;20072;-56
2022/01/14 09:58:14;;;;;;;;;;;4.80;99.90;;;;;;5076118;28;20047;-57
2022/01/14 10:00:40;;;;;;;22.75;8.80;;;5.00;99.90;;;;;;5074706;28;19967;-59
2022/01/14 10:03:17;;;;;;;;;;;5.10;99.90;;;;;;5075917;28;20051;-58
2022/01/14 10:05:47;;;;;;;19.08;7.90;;;5.20;99.90;;;;;;5074294;28;19924;-57
2022/01/14 10:08:20;;;;;;;13.35;8.18;;;5.30;99.90;;;;;;5077994;28;20127;-58
2022/01/14 10:10:57;;;;;;;13.95;8.57;;;5.40;99.90;;;;;;5077204;28;20391;-58
2022/01/14 10:13:26;;;;;;;14.93;8.40;;;5.50;99.50;;;;;;5078162;28;20044;-58
2022/01/14 10:16:05;;;;;;;15.93;7.93;;;5.70;99.50;;;;;;5077154;28;20044;-58
2022/01/14 10:18:34;;;;;;;13.23;8.15;;;5.80;98.10;;;;;;5076737;28;20213;-58
2022/01/14 10:21:04;;;;;;;11.80;7.90;;;5.90;96.20;;;;;;5056611;28;20449;-58
2022/01/14 10:23:52;;;;;;;12.30;7.40;;;6.10;96.60;;;;;;5056472;28;20056;-58
2022/01/14 10:26:20;;;;;;;10.32;7.25;;;6.30;95.90;;;;;;5055683;28;20461;-57
2022/01/14 10:29:07;;;;;;;15.07;7.72;;;6.50;95.80;;;;;;5056046;28;20126;-57
2022/01/14 10:31:36;;;;;;;14.80;8.30;;;6.80;93.50;;;;;;5056658;28;20263;-58
2022/01/14 10:34:10;;;;;;;15.50;8.75;;;6.90;91.50;;;;;;5056535;28;20582;-58
2022/01/14 10:36:38;;;;;;;15.70;8.50;;;7.10;88.60;;;;;;5056435;28;20066;-58
2022/01/14 10:39:22;;;;;;;12.63;8.13;;;7.10;89.90;;;;;;5055540;28;20270;-58
2022/01/14 10:41:50;;;;;;;15.40;7.97;;;7.10;86.40;;;;;;5074708;28;20044;-58
2022/01/14 10:44:32;;;;;;;13.45;7.63;;;7.10;84.60;;;;;;5072626;28;20055;-58
2022/01/14 10:47:23;;;;;;;11.60;7.50;;;7.10;85.90;;;;;;5073310;28;20044;-58
2022/01/14 10:49:56;;;;;;;11.23;8.13;;;7.20;84.60;;;;;;5075842;28;20490;-58
2022/01/14 10:52:24;;;;;;;13.25;7.90;;;7.30;84.00;;;;;;5075669;28;20077;-59
2022/01/14 10:54:56;;;;;;;12.18;6.97;;;7.40;81.90;;;;;;5077032;28;20463;-58
2022/01/14 10:57:29;;;;;;;10.50;7.03;;;7.50;80.90;;;;;;5076529;28;20047;-59
2022/01/14 11:00:12;;;;;;;11.75;7.78;;;7.60;81.60;;;;;;5075431;28;20084;-58
2022/01/14 11:02:42;;;;;;;14.45;7.38;;;7.90;80.10;;;;;;5076419;28;20137;-59
2022/01/14 11:05:20;;;;;;;10.98;7.93;;;8.00;79.50;;;;;;5076778;28;20275;-59
2022/01/14 11:07:49;;;;;;;9.75;6.68;;;8.20;77.80;;;;;;5076074;28;20055;-59
2022/01/14 11:10:25;;;;;;;9.27;6.47;;;8.30;76.50;;;;;;5076135;28;20407;-59
2022/01/14 11:12:55;;;;;;;10.82;6.22;;;8.40;76.40;;;;;;5075436;28;20482;-59
2022/01/14 11:15:23;;;;;;;12.18;7.55;;;8.50;74.80;;;;;;5076465;28;20437;-59
2022/01/14 11:17:53;;;;;;;12.43;6.78;;;8.60;74.40;;;;;;5075655;28;20059;-59
2022/01/14 11:20:26;;;;;;;11.35;7.25;;;8.70;75.20;;;;;;5075840;28;20127;-59
2022/01/14 11:25:42;;;;;;;12.25;7.80;;;9.00;72.70;;;;;;5075526;28;20507;-59
2022/01/14 11:28:11;;;;;;;13.57;8.02;;;9.00;71.60;;;;;;5076171;28;20051;-59
2022/01/14 11:30:40;;;;;;;11.88;8.18;;;9.10;70.70;;;;;;5074560;28;20461;-60
2022/01/14 11:33:08;;;;;;;12.38;7.90;;;9.20;70.80;;;;;;5076429;28;20097;-59
2022/01/14 11:35:37;;;;;;;11.77;7.90;;;9.30;69.30;;;;;;5075534;28;20109;-59
2022/01/14 11:38:41;;;;;;;10.93;7.03;;;9.40;69.50;;;;;;5075651;28;20276;-59
2022/01/14 11:41:12;;;;;;;15.63;8.68;;;9.50;69.40;;;;;;5074694;28;20232;-59
2022/01/14 11:43:54;;;;;;;13.65;8.00;;;9.50;67.50;;;;;;5075648;28;20048;-59
2022/01/14 11:46:48;;;;;;;15.00;8.77;;;9.50;68.30;;;;;;5074600;28;20047;-59
2022/01/14 11:49:38;;;;;;;21.38;11.88;;;9.50;68.00;;;;;;5072636;28;20058;-58
2022/01/14 11:52:07;;;;;;;24.45;16.17;;;9.40;68.60;;;;;;5074488;28;20643;-57
2022/01/14 11:54:46;;;;;;;32.97;19.30;;;9.40;69.30;;;;;;5075622;28;20125;-58
2022/01/14 11:57:44;;;;;;;37.20;22.10;;;9.30;69.00;;;;;;5075542;28;20520;-58
2022/01/14 12:00:30;;;;;;;;;;;9.30;68.80;;;;;;5073723;28;20465;-58
2022/01/14 12:03:11;;;;;;;30.10;20.00;;;9.20;69.80;;;;;;5075573;28;19920;-58
2022/01/14 12:05:51;;;;;;;28.40;18.48;;;9.10;68.70;;;;;;5075418;28;20136;-58
2022/01/14 12:08:19;;;;;;;33.78;18.40;;;9.10;68.70;;;;;;5075357;28;20441;-58
2022/01/14 12:10:58;;;;;;;34.35;19.80;;;9.00;69.40;;;;;;5076038;28;20032;-58
2022/01/14 12:13:38;;;;;;;29.52;19.45;;;9.00;70.00;;;;;;5075746;28;20047;-58
2022/01/14 12:16:09;;;;;;;29.02;18.27;;;8.90;70.20;;;;;;5077983;28;20739;-58
2022/01/14 12:18:58;;;;;;;29.70;19.63;;;8.80;70.80;;;;;;5079455;28;20525;-58
2022/01/14 12:21:48;;;;;;;34.08;20.27;;;8.80;70.90;;;;;;5078826;28;20506;-58
2022/01/14 12:24:15;;;;;;;31.70;18.83;;;8.90;71.30;;;;;;5079683;28;20043;-58
2022/01/14 12:26:43;;;;;;;30.02;19.95;;;8.90;71.20;;;;;;5079275;28;20536;-58
2022/01/14 12:29:12;;;;;;;39.00;21.25;;;8.90;70.90;;;;;;5079005;28;20133;-58
2022/01/14 12:32:07;;;;;;;32.13;19.73;;;8.90;70.20;;;;;;5078904;28;20040;-58
2022/01/14 12:34:56;;;;;;;29.88;19.13;;;8.90;71.00;;;;;;5078993;28;20075;-58
2022/01/14 12:37:48;;;;;;;33.97;19.10;;;8.90;71.90;;;;;;5078756;28;20035;-57
2022/01/14 12:40:37;;;;;;;31.02;20.83;;;9.10;71.20;;;;;;5075599;28;20036;-58
2022/01/14 12:43:09;;;;;;;31.45;20.23;;;9.30;70.40;;;;;;5078157;28;20427;-56
2022/01/14 12:46:14;;;;;;;36.88;20.45;;;9.40;69.10;;;;;;5079085;28;20105;-57
2022/01/14 12:48:56;;;;;;;30.60;19.52;;;9.50;68.20;;;;;;5073607;28;20052;-55
2022/01/14 12:51:24;;;;;;;31.67;19.17;;;9.40;68.70;;;;;;5075813;28;20265;-55
2022/01/14 12:53:59;;;;;;;28.40;18.40;;;9.30;68.40;;;;;;5077090;28;20105;-56
2022/01/14 12:56:29;;;;;;;36.63;19.35;;;9.40;67.70;;;;;;5079191;28;20545;-56
2022/01/14 12:59:10;;;;;;;26.65;16.63;;;9.40;65.90;;;;;;5076864;28;20058;-57
2022/01/14 13:01:40;;;;;;;28.77;18.08;;;9.50;66.90;;;;;;5079016;28;20044;-59
2022/01/14 13:04:12;;;;;;;29.45;19.00;;;9.60;66.10;;;;;;5076921;28;20047;-59
2022/01/14 13:06:40;;;;;;;28.10;18.40;;;9.60;64.60;;;;;;5077341;28;20456;-59
2022/01/14 13:09:07;;;;;;;32.83;19.20;;;9.50;64.70;;;;;;5075754;28;20384;-59
2022/01/14 13:11:46;;;;;;;;;;;9.50;65.00;;;;;;5077834;28;20105;-59
2022/01/14 13:14:16;;;;;;;32.17;21.20;;;9.50;65.00;;;;;;5078322;28;19927;-59
2022/01/14 13:16:47;;;;;;;33.85;20.27;;;9.60;64.50;;;;;;5078075;28;20141;-59
2022/01/14 13:19:20;;;;;;;34.97;19.90;;;9.60;64.50;;;;;;5078210;28;20051;-59